createdAt,value
2019-05-20T00:00:14.713Z,95167.61
2019-05-20T00:02:43.237Z,95163.28
2019-05-20T00:05:11.809Z,95160.56
2019-05-20T00:07:40.316Z,95162.48
2019-05-20T00:10:09.631Z,95165.19
2019-05-20T00:12:38.185Z,95164.38
2019-05-20T00:15:06.928Z,95160.86
2019-05-20T00:17:35.452Z,95164.11
2019-05-20T00:20:06.321Z,95168.44
2019-05-20T00:22:34.817Z,95167.37
2019-05-20T00:25:04.697Z,95160.58
2019-05-20T00:27:33.264Z,95156.27
2019-05-20T00:30:01.784Z,95158.67
2019-05-20T00:32:40.614Z,95158.16
2019-05-20T00:35:00.498Z,95150.56
2019-05-20T00:37:28.992Z,95152.47
2019-05-20T00:39:57.488Z,95146.25
2019-05-20T00:42:26.456Z,95154.91
2019-05-20T00:44:54.969Z,95157.88
2019-05-20T00:47:23.495Z,95153.82
2019-05-20T00:49:52.001Z,95155.98
2019-05-20T00:52:20.631Z,95151.92
2019-05-20T00:54:49.204Z,95149.22
2019-05-20T00:57:17.776Z,95152.70
2019-05-20T00:59:46.255Z,95150.00
2019-05-20T01:02:14.745Z,95150.80
2019-05-20T01:04:43.256Z,95146.73
2019-05-20T01:07:11.744Z,95142.41
2019-05-20T01:09:40.267Z,95143.73
2019-05-20T01:12:08.852Z,95145.06
2019-05-20T01:14:37.343Z,95144.54
2019-05-20T01:17:05.833Z,95143.40
2019-05-20T01:19:34.357Z,95146.60
2019-05-20T01:22:02.849Z,95140.38
2019-05-20T01:24:31.351Z,95145.78
2019-05-20T01:26:59.850Z,95142.84
2019-05-20T01:29:28.341Z,95143.91
2019-05-20T01:31:56.830Z,95140.94
2019-05-20T01:34:25.339Z,95142.84
2019-05-20T01:36:53.831Z,95143.91
2019-05-20T01:39:22.347Z,95149.60
2019-05-20T01:41:50.850Z,95147.70
2019-05-20T01:44:19.337Z,95142.55
2019-05-20T01:46:47.857Z,95141.49
2019-05-20T01:49:16.352Z,95146.90
2019-05-20T01:51:44.839Z,95146.09
2019-05-20T01:54:13.340Z,95143.64
2019-05-20T01:56:41.831Z,95143.91
2019-05-20T01:59:10.311Z,95147.98
2019-05-20T02:01:39.149Z,95140.42
2019-05-20T02:04:07.620Z,95142.33
2019-05-20T02:06:36.119Z,95140.98
2019-05-20T02:09:07.646Z,95141.79
2019-05-20T02:11:36.095Z,95140.14
2019-05-20T02:14:06.260Z,95141.77
2019-05-20T02:16:35.012Z,95152.57
2019-05-20T02:19:03.688Z,95144.48
2019-05-20T02:21:32.163Z,95147.73
2019-05-20T02:24:00.647Z,95147.45
2019-05-20T02:26:29.108Z,95149.36
2019-05-20T02:28:57.560Z,95155.33
2019-05-20T02:31:26.050Z,95152.63
2019-05-20T02:33:54.497Z,95151.52
2019-05-20T02:36:23.019Z,95153.73
2019-05-20T02:38:51.593Z,95151.52
2019-05-20T02:41:20.056Z,95155.84
2019-05-20T02:43:48.562Z,95147.45
2019-05-20T02:46:17.088Z,95144.48
2019-05-20T02:48:45.646Z,95151.23
2019-05-20T02:51:14.087Z,95151.52
2019-05-20T02:53:42.549Z,95151.75
2019-05-20T02:56:11.047Z,95155.81
2019-05-20T02:58:39.497Z,95150.38
2019-05-20T03:01:07.967Z,95153.09
2019-05-20T03:03:36.430Z,95153.91
2019-05-20T03:06:04.951Z,95150.40
2019-05-20T03:08:33.392Z,95152.55
2019-05-20T03:11:01.891Z,95152.03
2019-05-20T03:13:30.404Z,95153.11
2019-05-20T03:15:58.847Z,95156.91
2019-05-20T03:18:27.310Z,95161.75
2019-05-20T03:20:55.759Z,95161.21
2019-05-20T03:23:24.235Z,95160.63
2019-05-20T03:25:53.041Z,95161.17
2019-05-20T03:28:21.499Z,95167.63
2019-05-20T03:30:50.073Z,95161.94
2019-05-20T03:33:18.662Z,95158.95
2019-05-20T03:35:47.197Z,95161.16
2019-05-20T03:38:15.751Z,95160.33
2019-05-20T03:40:44.293Z,95160.61
2019-05-20T03:43:12.758Z,95159.81
2019-05-20T03:45:41.279Z,95162.20
2019-05-20T03:48:09.811Z,95154.08
2019-05-20T03:50:38.285Z,95163.55
2019-05-20T03:53:06.831Z,95167.08
2019-05-20T03:55:35.254Z,95165.21
2019-05-20T03:58:03.799Z,95166.58
2019-05-20T04:00:45.981Z,95165.77
2019-05-20T04:03:15.405Z,95167.39
2019-05-20T04:05:44.733Z,95169.82
2019-05-20T04:08:13.238Z,95173.89
2019-05-20T04:10:41.827Z,95173.07
2019-05-20T04:13:10.419Z,95176.54
2019-05-20T04:15:38.974Z,95176.02
2019-05-20T04:18:07.525Z,95179.02
2019-05-20T04:20:36.016Z,95177.13
2019-05-20T04:23:04.588Z,95171.18
2019-05-20T04:25:33.134Z,95178.45
2019-05-20T04:28:01.631Z,95176.02
2019-05-20T04:30:30.254Z,95176.27
2019-05-20T04:32:58.798Z,95180.86
2019-05-20T04:35:27.412Z,95181.16
2019-05-20T04:37:55.974Z,95181.97
2019-05-20T04:40:24.489Z,95181.66
2019-05-20T04:42:52.976Z,95186.78
2019-05-20T04:45:21.515Z,95191.63
2019-05-20T04:47:49.973Z,95191.91
2019-05-20T04:50:18.624Z,95198.39
2019-05-20T04:52:47.072Z,95191.91
2019-05-20T04:55:15.637Z,95194.86
2019-05-20T04:57:44.164Z,95200.29
2019-05-20T05:00:12.980Z,95201.64
2019-05-20T05:02:43.652Z,95206.51
2019-05-20T05:05:12.034Z,95208.14
2019-05-20T05:07:40.545Z,95206.51
2019-05-20T05:10:11.724Z,95212.45
2019-05-20T05:12:40.331Z,95211.91
2019-05-20T05:15:10.936Z,95210.84
2019-05-20T05:17:39.447Z,95211.92
2019-05-20T05:20:17.607Z,95212.72
2019-05-20T05:22:38.521Z,95212.19
2019-05-20T05:25:07.727Z,95219.50
2019-05-20T05:27:36.188Z,95217.08
2019-05-20T05:30:09.494Z,95223.02
2019-05-20T05:32:41.466Z,95217.59
2019-05-20T05:35:12.084Z,95220.06
2019-05-20T05:37:40.606Z,95221.64
2019-05-20T05:40:09.429Z,95220.02
2019-05-20T05:42:37.868Z,95226.22
2019-05-20T05:45:07.535Z,95226.24
2019-05-20T05:47:36.147Z,95224.34
2019-05-20T05:50:06.257Z,95225.72
2019-05-20T05:52:34.732Z,95226.53
2019-05-20T05:55:03.387Z,95222.76
2019-05-20T05:57:31.923Z,95223.32
2019-05-20T06:00:00.471Z,95229.58
2019-05-20T06:02:28.913Z,95229.05
2019-05-20T06:04:57.394Z,95225.00
2019-05-20T06:07:25.870Z,95230.13
2019-05-20T06:09:54.343Z,95231.75
2019-05-20T06:12:22.819Z,95230.92
2019-05-20T06:14:51.314Z,95235.49
2019-05-20T06:17:19.752Z,95231.97
2019-05-20T06:19:48.208Z,95235.51
2019-05-20T06:22:16.746Z,95236.36
2019-05-20T06:24:45.358Z,95241.55
2019-05-20T06:27:13.768Z,95245.58
2019-05-20T06:29:42.256Z,95243.65
2019-05-20T06:32:10.836Z,95246.36
2019-05-20T06:34:42.263Z,95245.58
2019-05-20T06:37:14.262Z,95242.38
2019-05-20T06:39:42.725Z,95241.86
2019-05-20T06:42:11.272Z,95249.20
2019-05-20T06:44:52.276Z,95253.27
2019-05-20T06:47:09.946Z,95245.97
2019-05-20T06:49:38.447Z,95249.49
2019-05-20T06:52:06.942Z,95257.33
2019-05-20T06:54:35.405Z,95256.00
2019-05-20T06:57:03.877Z,95257.38
2019-05-20T06:59:32.381Z,95258.45
2019-05-20T07:02:00.813Z,95262.81
2019-05-20T07:04:29.602Z,95261.20
2019-05-20T07:06:58.091Z,95262.86
2019-05-20T07:09:26.593Z,95257.70
2019-05-20T07:11:55.050Z,95260.44
2019-05-20T07:14:23.565Z,95266.67
2019-05-20T07:16:52.015Z,95262.89
2019-05-20T07:19:20.599Z,95266.67
2019-05-20T07:21:49.043Z,95273.45
2019-05-20T07:24:17.554Z,95271.58
2019-05-20T07:26:46.147Z,95270.48
2019-05-20T07:29:14.601Z,95269.14
2019-05-20T07:31:43.085Z,95271.86
2019-05-20T07:34:11.569Z,95271.84
2019-05-20T07:36:40.040Z,95274.81
2019-05-20T07:39:08.691Z,95274.00
2019-05-20T07:41:41.183Z,95269.68
2019-05-20T07:44:07.336Z,95274.81
2019-05-20T07:46:35.893Z,95277.80
2019-05-20T07:49:04.525Z,95273.71
2019-05-20T07:51:34.097Z,95277.51
2019-05-20T07:54:03.474Z,95284.24
2019-05-20T07:56:35.081Z,95283.41
2019-05-20T07:59:06.561Z,95283.94
2019-05-20T08:01:35.228Z,95282.55
2019-05-20T08:04:03.752Z,95286.86
2019-05-20T08:06:32.329Z,95288.99
2019-05-20T08:09:00.817Z,95294.38
2019-05-20T08:11:29.401Z,95294.62
2019-05-20T08:13:57.950Z,95290.04
2019-05-20T08:16:26.491Z,95299.23
2019-05-20T08:18:54.983Z,95293.59
2019-05-20T08:21:23.436Z,95295.70
2019-05-20T08:23:51.914Z,95303.49
2019-05-20T08:26:20.564Z,95301.86
2019-05-20T08:28:49.007Z,95297.31
2019-05-20T08:31:17.576Z,95302.51
2019-05-20T08:33:46.100Z,95309.54
2019-05-20T08:36:14.630Z,95310.63
2019-05-20T08:38:43.200Z,95313.06
2019-05-20T08:41:11.745Z,95320.09
2019-05-20T08:43:40.257Z,95321.47
2019-05-20T08:46:08.873Z,95317.41
2019-05-20T08:48:37.414Z,95325.27
2019-05-20T08:51:05.846Z,95333.94
2019-05-20T08:53:34.346Z,95334.19
2019-05-20T08:56:02.829Z,95344.78
2019-05-20T08:58:31.282Z,95341.80
2019-05-20T09:00:59.740Z,95342.09
2019-05-20T09:03:30.562Z,95340.49
2019-05-20T09:05:58.580Z,95345.91
2019-05-20T09:08:27.113Z,95347.23
2019-05-20T09:10:55.598Z,95351.02
2019-05-20T09:13:24.103Z,95348.88
2019-05-20T09:15:52.629Z,95354.52
2019-05-20T09:18:21.149Z,95354.16
2019-05-20T09:20:49.596Z,95353.83
2019-05-20T09:23:18.081Z,95357.30
2019-05-20T09:25:46.547Z,95359.72
2019-05-20T09:28:15.084Z,95360.25
2019-05-20T09:30:43.737Z,95360.53
2019-05-20T09:33:12.369Z,95362.13
2019-05-20T09:35:40.925Z,95365.03
2019-05-20T09:38:19.735Z,95366.61
2019-05-20T09:40:45.195Z,95375.23
2019-05-20T09:43:13.776Z,95367.70
2019-05-20T09:45:43.114Z,95375.03
2019-05-20T09:48:12.341Z,95374.77
2019-05-20T09:50:41.044Z,95372.88
2019-05-20T09:53:11.261Z,95371.02
2019-05-20T09:55:39.995Z,95379.72
2019-05-20T09:58:08.597Z,95383.77
2019-05-20T10:00:37.183Z,95384.05
2019-05-20T10:03:07.029Z,95385.69
2019-05-20T10:05:37.354Z,95391.42
2019-05-20T10:08:06.723Z,95392.27
2019-05-20T10:10:35.378Z,95389.86
2019-05-20T10:13:04.207Z,95390.98
2019-05-20T10:15:32.916Z,95396.09
2019-05-20T10:18:01.434Z,95402.01
2019-05-20T10:20:29.895Z,95399.59
2019-05-20T10:22:58.414Z,95403.52
2019-05-20T10:25:27.046Z,95407.47
2019-05-20T10:27:57.640Z,95419.13
2019-05-20T10:30:25.920Z,95411.86
2019-05-20T10:32:54.427Z,95424.33
2019-05-20T10:35:22.991Z,95419.87
2019-05-20T10:37:51.482Z,95415.81
2019-05-20T10:40:20.088Z,95424.61
2019-05-20T10:42:48.543Z,95425.12
2019-05-20T10:45:17.140Z,95423.55
2019-05-20T10:47:45.774Z,95429.80
2019-05-20T10:50:14.500Z,95430.05
2019-05-20T10:52:42.975Z,95436.64
2019-05-20T10:55:11.768Z,95429.38
2019-05-20T10:57:40.243Z,95430.27
2019-05-20T11:00:09.243Z,95431.16
2019-05-20T11:02:37.732Z,95436.05
2019-05-20T11:05:07.165Z,95434.42
2019-05-20T11:07:35.751Z,95440.58
2019-05-20T11:10:06.159Z,95435.70
2019-05-20T11:12:34.643Z,95449.53
2019-05-20T11:15:03.565Z,95439.60
2019-05-20T11:17:32.089Z,95441.84
2019-05-20T11:20:00.577Z,95454.30
2019-05-20T11:22:29.054Z,95446.19
2019-05-20T11:24:57.525Z,95451.36
2019-05-20T11:27:26.297Z,95455.42
2019-05-20T11:29:54.751Z,95456.47
2019-05-20T11:32:23.224Z,95454.00
2019-05-20T11:34:51.683Z,95454.28
2019-05-20T11:37:20.143Z,95454.83
2019-05-20T11:39:48.774Z,95458.13
2019-05-20T11:42:17.210Z,95454.10
2019-05-20T11:44:45.775Z,95456.22
2019-05-20T11:47:14.255Z,95444.27
2019-05-20T11:49:42.726Z,95457.55
2019-05-20T11:52:11.348Z,95447.80
2019-05-20T11:54:39.826Z,95459.23
2019-05-20T11:57:08.314Z,95458.14
2019-05-20T11:59:36.758Z,95457.95
2019-05-20T12:02:05.297Z,95459.34
2019-05-20T12:04:33.840Z,95462.34
2019-05-20T12:07:02.316Z,95456.43
2019-05-20T12:09:30.822Z,95459.17
2019-05-20T12:11:59.281Z,95464.33
2019-05-20T12:14:27.771Z,95459.17
2019-05-20T12:16:56.245Z,95462.14
2019-05-20T12:19:24.728Z,95458.05
2019-05-20T12:21:53.176Z,95457.77
2019-05-20T12:24:21.653Z,95453.66
2019-05-20T12:26:50.129Z,95455.30
2019-05-20T12:29:18.611Z,95458.28
2019-05-20T12:31:47.063Z,95458.84
2019-05-20T12:34:15.546Z,95462.91
2019-05-20T12:36:44.001Z,95461.31
2019-05-20T12:39:12.779Z,95462.65
2019-05-20T12:41:41.249Z,95468.05
2019-05-20T12:44:12.979Z,95465.34
2019-05-20T12:46:39.860Z,95468.59
2019-05-20T12:49:08.451Z,95462.89
2019-05-20T12:51:37.021Z,95466.13
2019-05-20T12:54:05.593Z,95467.23
2019-05-20T12:56:34.101Z,95472.34
2019-05-20T12:59:02.573Z,95465.86
2019-05-20T13:01:31.058Z,95467.53
2019-05-20T13:03:59.592Z,95462.97
2019-05-20T13:06:28.063Z,95467.07
2019-05-20T13:08:56.588Z,95467.64
2019-05-20T13:11:25.166Z,95470.91
2019-05-20T13:13:53.620Z,95467.41
2019-05-20T13:16:22.075Z,95466.84
2019-05-20T13:18:55.861Z,95473.11
2019-05-20T13:21:20.727Z,95474.98
2019-05-20T13:23:49.396Z,95468.48
2019-05-20T13:26:18.179Z,95476.60
2019-05-20T13:28:46.826Z,95467.41
2019-05-20T13:31:15.282Z,95478.49
2019-05-20T13:33:43.764Z,95478.78
2019-05-20T13:36:12.339Z,95474.14
2019-05-20T13:38:40.811Z,95476.03
2019-05-20T13:41:09.288Z,95481.12
2019-05-20T13:43:37.933Z,95485.98
2019-05-20T13:46:06.412Z,95480.55
2019-05-20T13:48:34.858Z,95494.34
2019-05-20T13:51:03.345Z,95495.94
2019-05-20T13:53:31.806Z,95493.20
2019-05-20T13:56:00.256Z,95497.28
2019-05-20T13:58:28.756Z,95496.73
2019-05-20T14:00:57.272Z,95492.41
2019-05-20T14:03:25.803Z,95493.73
2019-05-20T14:05:54.382Z,95490.49
2019-05-20T14:08:22.852Z,95496.19
2019-05-20T14:11:03.819Z,95499.99
2019-05-20T14:13:21.553Z,95500.26
2019-05-20T14:15:50.067Z,95495.93
2019-05-20T14:18:18.564Z,95500.23
2019-05-20T14:20:47.002Z,95501.30
2019-05-20T14:23:15.505Z,95502.92
2019-05-20T14:25:44.490Z,95503.98
2019-05-20T14:28:12.931Z,95509.68
2019-05-20T14:30:41.383Z,95507.77
2019-05-20T14:33:09.898Z,95508.55
2019-05-20T14:35:38.373Z,95507.74
2019-05-20T14:38:06.814Z,95511.77
2019-05-20T14:40:35.296Z,95515.25
2019-05-20T14:43:03.958Z,95518.98
2019-05-20T14:45:32.500Z,95514.39
2019-05-20T14:48:00.953Z,95524.38
2019-05-20T14:50:31.081Z,95520.31
2019-05-20T14:52:59.540Z,95518.36
2019-05-20T14:55:28.048Z,95525.91
2019-05-20T14:57:56.505Z,95523.46
2019-05-20T15:00:25.063Z,95524.81
2019-05-20T15:02:53.517Z,95525.88
2019-05-20T15:05:21.951Z,95529.69
2019-05-20T15:07:50.607Z,95530.73
2019-05-20T15:10:19.415Z,95525.86
2019-05-20T15:12:47.868Z,95529.89
2019-05-20T15:15:17.210Z,95530.34
2019-05-20T15:17:45.649Z,95529.30
2019-05-20T15:20:14.270Z,95528.80
2019-05-20T15:22:42.995Z,95537.48
2019-05-20T15:25:11.768Z,95535.02
2019-05-20T15:27:40.264Z,95535.05
2019-05-20T15:30:09.749Z,95534.20
2019-05-20T15:32:38.198Z,95535.59
2019-05-20T15:35:06.899Z,95533.70
2019-05-20T15:37:35.441Z,95529.89
2019-05-20T15:40:04.335Z,95536.91
2019-05-20T15:42:32.799Z,95534.77
2019-05-20T15:45:01.272Z,95528.85
2019-05-20T15:47:29.710Z,95529.36
2019-05-20T15:49:58.212Z,95525.84
2019-05-20T15:52:26.669Z,95531.25
2019-05-20T15:54:55.160Z,95527.50
2019-05-20T15:57:23.594Z,95529.13
2019-05-20T15:59:52.067Z,95528.62
2019-05-20T16:02:20.541Z,95532.45
2019-05-20T16:04:49.012Z,95529.73
2019-05-20T16:07:17.496Z,95519.09
2019-05-20T16:09:46.164Z,95524.43
2019-05-20T16:12:14.697Z,95518.98
2019-05-20T16:14:43.154Z,95528.77
2019-05-20T16:17:11.694Z,95516.38
2019-05-20T16:19:40.195Z,95519.33
2019-05-20T16:22:08.708Z,95523.08
2019-05-20T16:24:37.165Z,95522.23
2019-05-20T16:27:05.645Z,95526.03
2019-05-20T16:29:34.091Z,95525.50
2019-05-20T16:32:02.622Z,95524.97
2019-05-20T16:34:31.102Z,95533.39
2019-05-20T16:36:59.556Z,95539.08
2019-05-20T16:39:30.919Z,95545.88
2019-05-20T16:41:58.377Z,95552.87
2019-05-20T16:44:26.817Z,95547.11
2019-05-20T16:46:55.270Z,95552.19
2019-05-20T16:49:23.747Z,95553.22
2019-05-20T16:51:52.289Z,95555.11
2019-05-20T16:54:20.763Z,95557.81
2019-05-20T16:56:49.208Z,95561.91
2019-05-20T16:59:17.713Z,95559.23
2019-05-20T17:01:46.785Z,95561.65
2019-05-20T17:04:15.269Z,95561.12
2019-05-20T17:06:43.732Z,95555.70
2019-05-20T17:09:12.292Z,95557.03
2019-05-20T17:11:40.835Z,95556.74
2019-05-20T17:14:10.677Z,95568.63
2019-05-20T17:16:39.482Z,95562.80
2019-05-20T17:19:08.002Z,95564.52
2019-05-20T17:21:36.475Z,95567.11
2019-05-20T17:24:05.070Z,95569.44
2019-05-20T17:26:33.649Z,95576.16
2019-05-20T17:29:02.311Z,95569.66
2019-05-20T17:31:31.071Z,95561.05
2019-05-20T17:33:59.555Z,95566.78
2019-05-20T17:36:28.073Z,95560.80
2019-05-20T17:38:56.559Z,95553.40
2019-05-20T17:41:25.086Z,95557.16
2019-05-20T17:43:53.671Z,95549.14
2019-05-20T17:46:22.335Z,95553.44
2019-05-20T17:48:50.896Z,95566.38
2019-05-20T17:51:19.443Z,95577.23
2019-05-20T17:53:48.008Z,95572.39
2019-05-20T17:56:16.499Z,95581.86
2019-05-20T17:58:44.989Z,95584.30
2019-05-20T18:01:15.836Z,95588.37
2019-05-20T18:03:43.763Z,95588.16
2019-05-20T18:06:12.219Z,95591.39
2019-05-20T18:08:42.348Z,95589.19
2019-05-20T18:11:10.836Z,95583.48
2019-05-20T18:13:39.321Z,95581.53
2019-05-20T18:16:07.782Z,95595.28
2019-05-20T18:18:36.391Z,95598.19
2019-05-20T18:21:04.960Z,95605.48
2019-05-20T18:23:33.397Z,95604.36
2019-05-20T18:26:03.684Z,95598.92
2019-05-20T18:28:32.364Z,95602.64
2019-05-20T18:31:00.833Z,95607.23
2019-05-20T18:33:29.326Z,95605.63
2019-05-20T18:35:57.778Z,95608.33
2019-05-20T18:38:26.257Z,95614.84
2019-05-20T18:40:54.740Z,95612.18
2019-05-20T18:43:23.219Z,95619.14
2019-05-20T18:45:51.656Z,95618.31
2019-05-20T18:48:20.115Z,95618.98
2019-05-20T18:50:48.598Z,95620.30
2019-05-20T18:53:17.106Z,95623.53
2019-05-20T18:55:45.639Z,95627.28
2019-05-20T18:58:14.120Z,95635.63
2019-05-20T19:00:42.646Z,95638.86
2019-05-20T19:03:11.180Z,95646.04
2019-05-20T19:05:39.738Z,95649.03
2019-05-20T19:08:08.204Z,95649.18
2019-05-20T19:10:36.683Z,95646.66
2019-05-20T19:13:05.411Z,95649.31
2019-05-20T19:15:34.115Z,95642.20
2019-05-20T19:18:02.749Z,95647.41
2019-05-20T19:20:31.337Z,95651.22
2019-05-20T19:22:59.863Z,95653.06
2019-05-20T19:25:37.441Z,95659.03
2019-05-20T19:27:58.565Z,95664.43
2019-05-20T19:30:27.109Z,95658.98
2019-05-20T19:32:55.624Z,95661.16
2019-05-20T19:35:24.173Z,95661.11
2019-05-20T19:37:52.621Z,95666.02
2019-05-20T19:40:21.168Z,95668.20
2019-05-20T19:42:49.620Z,95666.31
2019-05-20T19:45:18.197Z,95665.25
2019-05-20T19:47:46.649Z,95667.91
2019-05-20T19:50:15.370Z,95671.33
2019-05-20T19:52:43.897Z,95671.59
2019-05-20T19:55:12.464Z,95674.25
2019-05-20T19:57:41.048Z,95677.23
2019-05-20T20:00:09.956Z,95671.84
2019-05-20T20:02:38.415Z,95672.13
2019-05-20T20:05:10.251Z,95675.66
2019-05-20T20:07:38.714Z,95678.94
2019-05-20T20:10:07.696Z,95678.46
2019-05-20T20:12:36.172Z,95686.58
2019-05-20T20:15:08.564Z,95686.34
2019-05-20T20:17:37.019Z,95689.62
2019-05-20T20:20:06.265Z,95685.86
2019-05-20T20:22:34.735Z,95689.62
2019-05-20T20:25:03.471Z,95683.45
2019-05-20T20:27:31.956Z,95678.28
2019-05-20T20:30:00.446Z,95683.62
2019-05-20T20:32:37.808Z,95680.52
2019-05-20T20:34:59.100Z,95671.45
2019-05-20T20:37:27.579Z,95681.70
2019-05-20T20:39:56.052Z,95676.83
2019-05-20T20:42:24.530Z,95674.84
2019-05-20T20:44:53.017Z,95683.87
2019-05-20T20:47:21.459Z,95686.92
2019-05-20T20:49:49.916Z,95688.34
2019-05-20T20:52:18.405Z,95688.34
2019-05-20T20:54:46.872Z,95692.92
2019-05-20T20:57:15.392Z,95695.14
2019-05-20T20:59:43.871Z,95689.38
2019-05-20T21:02:12.336Z,95694.97
2019-05-20T21:04:40.992Z,95702.06
2019-05-20T21:07:09.475Z,95692.92
2019-05-20T21:09:38.000Z,95692.38
2019-05-20T21:12:06.435Z,95688.86
2019-05-20T21:14:34.913Z,95698.06
2019-05-20T21:17:03.440Z,95700.78
2019-05-20T21:19:31.937Z,95699.48
2019-05-20T21:22:00.457Z,95704.39
2019-05-20T21:24:28.945Z,95704.13
2019-05-20T21:26:57.425Z,95706.80
2019-05-20T21:29:25.910Z,95707.28
2019-05-20T21:31:54.359Z,95705.94
2019-05-20T21:34:22.827Z,95704.23
2019-05-20T21:36:51.274Z,95708.86
2019-05-20T21:39:19.706Z,95708.80
2019-05-20T21:41:48.266Z,95709.63
2019-05-20T21:44:16.708Z,95704.01
2019-05-20T21:46:45.173Z,95707.77
2019-05-20T21:49:13.631Z,95707.70
2019-05-20T21:51:42.112Z,95710.39
2019-05-20T21:54:10.576Z,95712.91
2019-05-20T21:56:39.027Z,95711.58
2019-05-20T21:59:07.606Z,95711.91
2019-05-20T22:01:36.063Z,95712.69
2019-05-20T22:04:04.795Z,95709.05
2019-05-20T22:06:33.293Z,95708.11
2019-05-20T22:09:01.763Z,95712.34
2019-05-20T22:11:30.248Z,95710.73
2019-05-20T22:13:58.716Z,95704.52
2019-05-20T22:16:29.784Z,95709.91
2019-05-20T22:18:57.737Z,95718.56
2019-05-20T22:21:39.900Z,95711.91
2019-05-20T22:24:08.952Z,95698.18
2019-05-20T22:26:37.437Z,95699.53
2019-05-20T22:29:05.890Z,95702.42
2019-05-20T22:31:34.361Z,95701.81
2019-05-20T22:34:02.869Z,95702.36
2019-05-20T22:36:31.376Z,95703.00
2019-05-20T22:38:59.827Z,95706.30
2019-05-20T22:41:28.469Z,95699.31
2019-05-20T22:43:56.921Z,95700.76
2019-05-20T22:46:25.474Z,95699.72
2019-05-20T22:48:53.930Z,95708.16
2019-05-20T22:51:22.393Z,95701.89
2019-05-20T22:53:50.868Z,95696.20
2019-05-20T22:56:19.347Z,95696.20
2019-05-20T22:58:47.940Z,95700.06
2019-05-20T23:01:16.422Z,95702.76
2019-05-20T23:03:55.980Z,95697.59
2019-05-20T23:06:15.092Z,95690.80
2019-05-20T23:08:43.583Z,95699.94
2019-05-20T23:11:12.079Z,95695.02
2019-05-20T23:13:40.538Z,95696.95
2019-05-20T23:16:09.156Z,95695.91
2019-05-20T23:18:37.624Z,95697.84
2019-05-20T23:21:06.068Z,95698.70
2019-05-20T23:23:34.553Z,95691.09
2019-05-20T23:26:03.009Z,95697.06
2019-05-20T23:28:31.521Z,95693.73
2019-05-20T23:30:59.981Z,95691.80
2019-05-20T23:33:28.464Z,95699.66
2019-05-20T23:35:56.946Z,95699.41
2019-05-20T23:38:25.412Z,95698.73
2019-05-20T23:40:53.888Z,95703.81
2019-05-20T23:43:22.358Z,95701.41
2019-05-20T23:45:50.800Z,95691.98
2019-05-20T23:48:19.270Z,95698.83
2019-05-20T23:50:47.727Z,95700.48
2019-05-20T23:53:16.208Z,95694.61
2019-05-20T23:55:45.612Z,95695.19
2019-05-20T23:58:14.108Z,95690.80
